Osprey 1 — CFG7757 — position and weather

sailwx.info

Track history (hours):
 
Tides and Currents Weather Stations Pressure Air Temp Water Temp Dewpoint Dewpoint Depression Visibility Wind Speed Wind Dir Waves Ship Positions

Osprey 1

Last reported at 2017-Dec-11 13:34 UTC. Time now 2017-Dec-12 21:52 UTC.
Position N 49°42' W 127°37'.

Length 57 m; draft 5.5 m.

Type: Fishing. MMSI: 316005998.

Date/timePositionNaut miles runAvg speedWind from/ knotsBaromVisibWave heightAir tempDewpointWater temp
2017-Dec-11 13:34N 49°42' W 127°37'0 5.0
2017-Dec-11 13:30N 49°42' W 127°37'1 2.8
2017-Dec-11 13:00N 49°41' W 127°35'1 2.1
2017-Dec-11 12:30N 49°41' W 127°33'2 0.7
2017-Dec-11 09:32N 49°43' W 127°35'0 3.0
2017-Dec-11 09:30N 49°43' W 127°35'2 3.2
2017-Dec-11 08:47N 49°41' W 127°32'0 1.3
2017-Dec-11 08:30N 49°42' W 127°33'4 3.1
2017-Dec-11 07:05N 49°45' W 127°37'1 5.8
2017-Dec-11 06:55N 49°46' W 127°38'710.8
2017-Dec-11 06:18N 49°52' W 127°43'311.2
2017-Dec-11 06:00N 49°54' W 127°46'4410.0
2017-Dec-11 01:35N 50°32' W 128°23'110.6
2017-Dec-11 01:30N 50°33' W 128°23'611.1
2017-Dec-11 01:00N 50°38' W 128°27'611.5
2017-Dec-11 00:30N 50°44' W 128°28'510.5
2017-Dec-10 23:59N 50°49' W 128°26'2212.0
2017-Dec-10 22:12N 50°52' W 127°52'313.1
2017-Dec-10 22:00N 50°51' W 127°48'612.8
2017-Dec-10 21:30N 50°49' W 127°39'713.7
2017-Dec-10 21:00N 50°47' W 127°28'913.4
2017-Dec-10 20:20N 50°45' W 127°15'413.4
2017-Dec-10 20:01N 50°43' W 127°08'713.9
2017-Dec-10 19:29N 50°41' W 126°57'713.4
2017-Dec-10 18:58N 50°38' W 126°48'813.3
2017-Dec-10 18:21N 50°32' W 126°39'1813.2
2017-Dec-10 16:59N 50°28' W 126°11'1611.5
2017-Dec-10 15:32N 50°23' W 125°47'110.1
2017-Dec-10 15:29N 50°22' W 125°46'611.5
2017-Dec-10 14:58N 50°23' W 125°37'610.3
2017-Dec-10 14:24N 50°20' W 125°28'4 9.4
2017-Dec-10 13:59N 50°17' W 125°25'611.5
2017-Dec-10 13:30N 50°12' W 125°22'510.0
2017-Dec-10 13:00N 50°07' W 125°20'612.1
2017-Dec-10 12:30N 50°03' W 125°14'611.7
2017-Dec-10 12:00N 49°57' W 125°10'612.3
2017-Dec-10 11:30N 49°53' W 125°02'611.8
2017-Dec-10 11:00N 49°50' W 124°55'612.0
2017-Dec-10 10:30N 49°46' W 124°48'611.9
2017-Dec-10 10:00N 49°42' W 124°41'611.6
2017-Dec-10 09:30N 49°39' W 124°34'611.9
2017-Dec-10 08:59N 49°35' W 124°26'911.8
2017-Dec-10 08:14N 49°31' W 124°14'411.7
2017-Dec-10 07:54N 49°29' W 124°09'512.0
2017-Dec-10 07:27N 49°27' W 124°01'1512.1
2017-Dec-10 06:15N 49°22' W 123°40'311.9
2017-Dec-10 05:59N 49°21' W 123°35'611.7
2017-Dec-10 05:28N 49°19' W 123°27'612.3
2017-Dec-10 05:00N 49°19' W 123°18'611.9
2017-Dec-10 04:30N 49°19' W 123°09'4 7.6
2017-Dec-10 04:00N 49°17' W 123°03'0 0.0
2017-Dec-10 03:30N 49°17' W 123°03'0 0.0
2017-Dec-10 03:00N 49°17' W 123°03'0 0.0
2017-Dec-10 02:30N 49°17' W 123°03'0 0.0
2017-Dec-10 02:00N 49°17' W 123°03'0 0.0
2017-Dec-10 01:30N 49°17' W 123°03'0 0.0
2017-Dec-10 01:00N 49°17' W 123°03'0 0.0
2017-Dec-10 00:30N 49°17' W 123°03'0 0.0
2017-Dec-10 00:00N 49°17' W 123°03'0 0.0
2017-Dec-09 23:30N 49°17' W 123°03'0 0.0
2017-Dec-09 23:00N 49°17' W 123°03'0 0.0
2017-Dec-09 22:30N 49°17' W 123°03'0 0.0
2017-Dec-09 22:00N 49°17' W 123°03'0 0.0
2017-Dec-09 21:30N 49°17' W 123°03'0 0.0
2017-Dec-09 21:00N 49°17' W 123°03'0 0.0
2017-Dec-09 20:30N 49°17' W 123°03'0 0.0
2017-Dec-09 20:00N 49°17' W 123°03'0 0.0
2017-Dec-09 19:30N 49°17' W 123°03'0 0.0
2017-Dec-09 19:00N 49°17' W 123°03'0 0.0
2017-Dec-09 18:30N 49°17' W 123°03'0 0.0
2017-Dec-09 18:00N 49°17' W 123°03'0 0.0
2017-Dec-09 17:30N 49°17' W 123°03'0 0.0
2017-Dec-09 17:00N 49°17' W 123°03'0 0.0
2017-Dec-09 16:30N 49°17' W 123°03'0 0.0
2017-Dec-09 16:00N 49°17' W 123°03'0 0.0
2017-Dec-09 15:30N 49°17' W 123°03'0 0.0
2017-Dec-09 15:00N 49°17' W 123°03'0 0.0
2017-Dec-09 14:30N 49°17' W 123°03'0 0.0
2017-Dec-09 14:00N 49°17' W 123°03'2 3.3
2017-Dec-09 13:30N 49°18' W 123°06'712.9
2017-Dec-09 13:00N 49°19' W 123°16'612.4
2017-Dec-09 12:30N 49°20' W 123°25'612.4
2017-Dec-09 12:00N 49°21' W 123°35'1212.6
2017-Dec-09 11:03N 49°25' W 123°52'112.8
2017-Dec-09 11:00N 49°26' W 123°52'712.6
2017-Dec-09 10:27N 49°28' W 124°03'1212.7
2017-Dec-09 09:30N 49°33' W 124°19'612.6
2017-Dec-09 09:00N 49°36' W 124°28'612.3
2017-Dec-09 08:29N 49°40' W 124°35'612.6
2017-Dec-09 08:00N 49°43' W 124°43'612.2
2017-Dec-09 07:30N 49°48' W 124°50'612.4
2017-Dec-09 07:00N 49°51' W 124°58'612.4
2017-Dec-09 06:31N 49°55' W 125°05'611.5
2017-Dec-09 06:00N 49°59' W 125°12'510.8
2017-Dec-09 05:31N 50°04' W 125°15'612.0
2017-Dec-09 05:00N 50°09' W 125°21'612.2
2017-Dec-09 04:30N 50°15' W 125°23'612.0
2017-Dec-09 04:00N 50°20' W 125°26'3412.0
2017-Dec-09 01:09N 50°29' W 126°18'311.5
2017-Dec-09 00:51N 50°30' W 126°23'1610.9
2017-Dec-08 23:23N 50°33' W 126°48'611.2
2017-Dec-08 22:52N 50°35' W 126°56'511.0
2017-Dec-08 22:22N 50°37' W 127°04'411.1
2017-Dec-08 21:59N 50°38' W 127°11'711.5
2017-Dec-08 21:20N 50°43' W 127°19'411.9
2017-Dec-08 21:00N 50°46' W 127°24'611.6
2017-Dec-08 20:30N 50°48' W 127°33'611.9
2017-Dec-08 20:00N 50°50' W 127°41'611.7
2017-Dec-08 19:30N 50°52' W 127°50'1511.4
2017-Dec-08 18:09N 50°51' W 128°15'212.1
2017-Dec-08 18:00N 50°51' W 128°17'612.2
2017-Dec-08 17:30N 50°49' W 128°26'5510.9
2017-Dec-08 12:29N 49°56' W 128°02'3 1.5
2017-Dec-08 10:22N 49°58' W 127°58'3 2.9
2017-Dec-08 09:26N 49°55' W 127°59'0 0.8
2017-Dec-08 09:00N 49°55' W 127°58'1 2.2
2017-Dec-08 08:29N 49°56' W 127°58'1 2.5
2017-Dec-08 07:58N 49°57' W 127°56'2 4.7
2017-Dec-08 07:30N 49°58' W 127°53'8 2.1
2017-Dec-08 03:49N 49°57' W 128°06'0 1.4
2017-Dec-08 03:28N 49°57' W 128°05'1 2.6
2017-Dec-08 02:56N 49°56' W 128°03'1 2.6
2017-Dec-08 02:29N 49°56' W 128°02'1 2.4
2017-Dec-08 01:56N 49°56' W 127°60'1 2.7
2017-Dec-08 01:30N 49°57' W 127°58'2 3.3
2017-Dec-08 00:50N 49°57' W 127°55'0 0.4
2017-Dec-08 00:28N 49°57' W 127°55'21 1.9
2017-Dec-07 13:27N 49°39' W 127°37'2 2.1
2017-Dec-07 12:15N 49°41' W 127°35'2 2.1
2017-Dec-07 11:09N 49°43' W 127°34'1 2.1
2017-Dec-07 10:45N 49°42' W 127°34'  
Track history (hours):
 
Tides and Currents Weather Stations Pressure Air Temp Water Temp Dewpoint Dewpoint Depression Visibility Wind Speed Wind Dir Waves Ship Positions

Osprey 1

Last reported at 2017-Dec-11 13:34 UTC. Time now 2017-Dec-12 21:52 UTC.
Position N 49°42' W 127°37'.

Length 57 m; draft 5.5 m.

Type: Fishing. MMSI: 316005998.

Date/timePositionNaut miles runAvg speedWind from/ knotsBaromVisibWave heightAir tempDewpointWater temp
2017-Dec-11 13:34N 49°42' W 127°37'0 5.0
2017-Dec-11 13:30N 49°42' W 127°37'1 2.8
2017-Dec-11 13:00N 49°41' W 127°35'1 2.1
2017-Dec-11 12:30N 49°41' W 127°33'2 0.7
2017-Dec-11 09:32N 49°43' W 127°35'0 3.0
2017-Dec-11 09:30N 49°43' W 127°35'2 3.2
2017-Dec-11 08:47N 49°41' W 127°32'0 1.3
2017-Dec-11 08:30N 49°42' W 127°33'4 3.1
2017-Dec-11 07:05N 49°45' W 127°37'1 5.8
2017-Dec-11 06:55N 49°46' W 127°38'710.8
2017-Dec-11 06:18N 49°52' W 127°43'311.2
2017-Dec-11 06:00N 49°54' W 127°46'4410.0
2017-Dec-11 01:35N 50°32' W 128°23'110.6
2017-Dec-11 01:30N 50°33' W 128°23'611.1
2017-Dec-11 01:00N 50°38' W 128°27'611.5
2017-Dec-11 00:30N 50°44' W 128°28'510.5
2017-Dec-10 23:59N 50°49' W 128°26'2212.0
2017-Dec-10 22:12N 50°52' W 127°52'313.1
2017-Dec-10 22:00N 50°51' W 127°48'612.8
2017-Dec-10 21:30N 50°49' W 127°39'713.7
2017-Dec-10 21:00N 50°47' W 127°28'913.4
2017-Dec-10 20:20N 50°45' W 127°15'413.4
2017-Dec-10 20:01N 50°43' W 127°08'713.9
2017-Dec-10 19:29N 50°41' W 126°57'713.4
2017-Dec-10 18:58N 50°38' W 126°48'813.3
2017-Dec-10 18:21N 50°32' W 126°39'1813.2
2017-Dec-10 16:59N 50°28' W 126°11'1611.5
2017-Dec-10 15:32N 50°23' W 125°47'110.1
2017-Dec-10 15:29N 50°22' W 125°46'611.5
2017-Dec-10 14:58N 50°23' W 125°37'610.3
2017-Dec-10 14:24N 50°20' W 125°28'4 9.4
2017-Dec-10 13:59N 50°17' W 125°25'611.5
2017-Dec-10 13:30N 50°12' W 125°22'510.0
2017-Dec-10 13:00N 50°07' W 125°20'612.1
2017-Dec-10 12:30N 50°03' W 125°14'611.7
2017-Dec-10 12:00N 49°57' W 125°10'612.3
2017-Dec-10 11:30N 49°53' W 125°02'611.8
2017-Dec-10 11:00N 49°50' W 124°55'612.0
2017-Dec-10 10:30N 49°46' W 124°48'611.9
2017-Dec-10 10:00N 49°42' W 124°41'611.6
2017-Dec-10 09:30N 49°39' W 124°34'611.9
2017-Dec-10 08:59N 49°35' W 124°26'911.8
2017-Dec-10 08:14N 49°31' W 124°14'411.7
2017-Dec-10 07:54N 49°29' W 124°09'512.0
2017-Dec-10 07:27N 49°27' W 124°01'1512.1
2017-Dec-10 06:15N 49°22' W 123°40'311.9
2017-Dec-10 05:59N 49°21' W 123°35'611.7
2017-Dec-10 05:28N 49°19' W 123°27'612.3
2017-Dec-10 05:00N 49°19' W 123°18'611.9
2017-Dec-10 04:30N 49°19' W 123°09'4 7.6
2017-Dec-10 04:00N 49°17' W 123°03'0 0.0
2017-Dec-10 03:30N 49°17' W 123°03'0 0.0
2017-Dec-10 03:00N 49°17' W 123°03'0 0.0
2017-Dec-10 02:30N 49°17' W 123°03'0 0.0
2017-Dec-10 02:00N 49°17' W 123°03'0 0.0
2017-Dec-10 01:30N 49°17' W 123°03'0 0.0
2017-Dec-10 01:00N 49°17' W 123°03'0 0.0
2017-Dec-10 00:30N 49°17' W 123°03'0 0.0
2017-Dec-10 00:00N 49°17' W 123°03'0 0.0
2017-Dec-09 23:30N 49°17' W 123°03'0 0.0
2017-Dec-09 23:00N 49°17' W 123°03'0 0.0
2017-Dec-09 22:30N 49°17' W 123°03'0 0.0
2017-Dec-09 22:00N 49°17' W 123°03'0 0.0
2017-Dec-09 21:30N 49°17' W 123°03'0 0.0
2017-Dec-09 21:00N 49°17' W 123°03'0 0.0
2017-Dec-09 20:30N 49°17' W 123°03'0 0.0
2017-Dec-09 20:00N 49°17' W 123°03'0 0.0
2017-Dec-09 19:30N 49°17' W 123°03'0 0.0
2017-Dec-09 19:00N 49°17' W 123°03'0 0.0
2017-Dec-09 18:30N 49°17' W 123°03'0 0.0
2017-Dec-09 18:00N 49°17' W 123°03'0 0.0
2017-Dec-09 17:30N 49°17' W 123°03'0 0.0
2017-Dec-09 17:00N 49°17' W 123°03'0 0.0
2017-Dec-09 16:30N 49°17' W 123°03'0 0.0
2017-Dec-09 16:00N 49°17' W 123°03'0 0.0
2017-Dec-09 15:30N 49°17' W 123°03'0 0.0
2017-Dec-09 15:00N 49°17' W 123°03'0 0.0
2017-Dec-09 14:30N 49°17' W 123°03'0 0.0
2017-Dec-09 14:00N 49°17' W 123°03'2 3.3
2017-Dec-09 13:30N 49°18' W 123°06'712.9
2017-Dec-09 13:00N 49°19' W 123°16'612.4
2017-Dec-09 12:30N 49°20' W 123°25'612.4
2017-Dec-09 12:00N 49°21' W 123°35'1212.6
2017-Dec-09 11:03N 49°25' W 123°52'112.8
2017-Dec-09 11:00N 49°26' W 123°52'712.6
2017-Dec-09 10:27N 49°28' W 124°03'1212.7
2017-Dec-09 09:30N 49°33' W 124°19'612.6
2017-Dec-09 09:00N 49°36' W 124°28'612.3
2017-Dec-09 08:29N 49°40' W 124°35'612.6
2017-Dec-09 08:00N 49°43' W 124°43'612.2
2017-Dec-09 07:30N 49°48' W 124°50'612.4
2017-Dec-09 07:00N 49°51' W 124°58'612.4
2017-Dec-09 06:31N 49°55' W 125°05'611.5
2017-Dec-09 06:00N 49°59' W 125°12'510.8
2017-Dec-09 05:31N 50°04' W 125°15'612.0
2017-Dec-09 05:00N 50°09' W 125°21'612.2
2017-Dec-09 04:30N 50°15' W 125°23'612.0
2017-Dec-09 04:00N 50°20' W 125°26'3412.0
2017-Dec-09 01:09N 50°29' W 126°18'311.5
2017-Dec-09 00:51N 50°30' W 126°23'1610.9
2017-Dec-08 23:23N 50°33' W 126°48'611.2
2017-Dec-08 22:52N 50°35' W 126°56'511.0
2017-Dec-08 22:22N 50°37' W 127°04'411.1
2017-Dec-08 21:59N 50°38' W 127°11'711.5
2017-Dec-08 21:20N 50°43' W 127°19'411.9
2017-Dec-08 21:00N 50°46' W 127°24'611.6
2017-Dec-08 20:30N 50°48' W 127°33'611.9
2017-Dec-08 20:00N 50°50' W 127°41'611.7
2017-Dec-08 19:30N 50°52' W 127°50'1511.4
2017-Dec-08 18:09N 50°51' W 128°15'212.1
2017-Dec-08 18:00N 50°51' W 128°17'612.2
2017-Dec-08 17:30N 50°49' W 128°26'5510.9
2017-Dec-08 12:29N 49°56' W 128°02'3 1.5
2017-Dec-08 10:22N 49°58' W 127°58'3 2.9
2017-Dec-08 09:26N 49°55' W 127°59'0 0.8
2017-Dec-08 09:00N 49°55' W 127°58'1 2.2
2017-Dec-08 08:29N 49°56' W 127°58'1 2.5
2017-Dec-08 07:58N 49°57' W 127°56'2 4.7
2017-Dec-08 07:30N 49°58' W 127°53'8 2.1
2017-Dec-08 03:49N 49°57' W 128°06'0 1.4
2017-Dec-08 03:28N 49°57' W 128°05'1 2.6
2017-Dec-08 02:56N 49°56' W 128°03'1 2.6
2017-Dec-08 02:29N 49°56' W 128°02'1 2.4
2017-Dec-08 01:56N 49°56' W 127°60'1 2.7
2017-Dec-08 01:30N 49°57' W 127°58'2 3.3
2017-Dec-08 00:50N 49°57' W 127°55'0 0.4
2017-Dec-08 00:28N 49°57' W 127°55'21 1.9
2017-Dec-07 13:27N 49°39' W 127°37'2 2.1
2017-Dec-07 12:15N 49°41' W 127°35'2 2.1
2017-Dec-07 11:09N 49°43' W 127°34'1 2.1
2017-Dec-07 10:45N 49°42' W 127°34'  

Dump ship's entire track history